createdAt,value
2023-02-07T00:00:36.658Z,6.60
2023-02-07T00:05:40.365Z,6.50
2023-02-07T00:10:45.204Z,6.50
2023-02-07T00:15:52.112Z,6.40
2023-02-07T00:21:02.752Z,6.40
2023-02-07T00:26:09.198Z,6.30
2023-02-07T00:31:14.724Z,6.30
2023-02-07T00:36:20.499Z,6.20
2023-02-07T00:41:25.679Z,6.20
2023-02-07T00:46:32.043Z,6.20
2023-02-07T00:51:35.730Z,6.10
2023-02-07T00:56:40.629Z,6.10
2023-02-07T01:01:44.461Z,6.10
2023-02-07T01:06:47.819Z,6.10
2023-02-07T01:11:52.663Z,6.00
2023-02-07T01:16:56.270Z,6.00
2023-02-07T01:22:00.450Z,6.00
2023-02-07T01:27:05.873Z,6.00
2023-02-07T01:32:10.686Z,6.00
2023-02-07T01:37:14.181Z,6.00
2023-02-07T01:42:20.043Z,6.00
2023-02-07T01:47:25.318Z,5.90
2023-02-07T01:52:33.336Z,5.90
2023-02-07T01:57:38.253Z,5.90
2023-02-07T02:02:43.483Z,5.80
2023-02-07T02:07:49.374Z,5.80
2023-02-07T02:13:19.879Z,5.80
2023-02-07T02:18:48.249Z,5.70
2023-02-07T02:24:20.369Z,5.70
2023-02-07T02:30:05.535Z,5.60
2023-02-07T02:35:18.077Z,5.60
2023-02-07T02:40:29.233Z,5.60
2023-02-07T02:45:38.042Z,5.50
2023-02-07T02:50:47.498Z,5.50
2023-02-07T02:56:07.433Z,5.40
2023-02-07T03:01:20.329Z,5.40
2023-02-07T03:06:44.368Z,5.30
2023-02-07T03:11:56.408Z,5.20
2023-02-07T03:17:09.334Z,5.10
2023-02-07T03:22:16.195Z,5.10
2023-02-07T03:27:24.306Z,5.00
2023-02-07T03:32:34.818Z,5.00
2023-02-07T03:37:46.462Z,5.00
2023-02-07T03:42:54.480Z,5.00
2023-02-07T03:47:58.074Z,5.00
2023-02-07T03:53:02.841Z,5.00
2023-02-07T03:58:07.466Z,5.10
2023-02-07T04:03:10.972Z,5.10
2023-02-07T04:08:17.147Z,5.00
2023-02-07T04:13:23.464Z,5.00
2023-02-07T04:18:27.323Z,4.90
2023-02-07T04:23:32.332Z,4.90
2023-02-07T04:28:35.812Z,4.90
2023-02-07T04:33:41.412Z,4.90
2023-02-07T04:38:46.905Z,4.90
2023-02-07T04:43:50.415Z,4.90
2023-02-07T04:48:53.915Z,4.90
2023-02-07T04:53:58.842Z,5.00
2023-02-07T04:59:02.359Z,5.00
2023-02-07T05:04:05.966Z,5.00
2023-02-07T05:09:10.892Z,5.00
2023-02-07T05:14:14.479Z,5.10
2023-02-07T05:19:21.032Z,5.10
2023-02-07T05:24:27.045Z,5.00
2023-02-07T05:29:30.536Z,5.00
2023-02-07T05:34:34.083Z,5.00
2023-02-07T05:39:39.174Z,5.00
2023-02-07T05:44:42.811Z,5.00
2023-02-07T05:49:46.246Z,5.00
2023-02-07T05:54:51.263Z,5.00
2023-02-07T05:59:57.613Z,5.00
2023-02-07T06:05:01.444Z,5.00
2023-02-07T06:10:07.188Z,5.00
2023-02-07T06:15:11.299Z,4.90
2023-02-07T06:20:14.670Z,4.90
2023-02-07T06:25:21.433Z,5.00
2023-02-07T06:30:25.048Z,4.90
2023-02-07T06:35:28.757Z,4.90
2023-02-07T06:40:33.447Z,4.90
2023-02-07T06:45:37.505Z,5.00
2023-02-07T06:50:41.208Z,5.00
2023-02-07T06:55:46.026Z,5.00
2023-02-07T07:00:49.833Z,5.00
2023-02-07T07:05:53.309Z,5.10
2023-02-07T07:10:58.609Z,5.10
2023-02-07T07:16:02.416Z,5.10
2023-02-07T07:21:06.437Z,5.10
2023-02-07T07:26:11.285Z,5.10
2023-02-07T07:31:15.497Z,5.10
2023-02-07T07:36:19.139Z,5.10
2023-02-07T07:41:24.363Z,5.10
2023-02-07T07:46:27.950Z,5.10
2023-02-07T07:51:31.541Z,5.10
2023-02-07T07:56:36.672Z,5.20
2023-02-07T08:01:40.288Z,5.20
2023-02-07T08:06:43.818Z,5.30
2023-02-07T08:11:48.838Z,5.50
2023-02-07T08:16:52.463Z,5.80
2023-02-07T08:21:56.178Z,6.10
2023-02-07T08:27:01.206Z,6.40
2023-02-07T08:32:05.553Z,6.60
2023-02-07T08:37:10.227Z,6.60
2023-02-07T08:42:14.960Z,6.70
2023-02-07T08:47:19.925Z,6.70
2023-02-07T08:52:23.964Z,6.60
2023-02-07T08:57:29.365Z,6.60
2023-02-07T09:02:32.882Z,6.50
2023-02-07T09:07:36.769Z,6.50
2023-02-07T09:12:41.698Z,6.50
2023-02-07T09:17:45.066Z,6.50
2023-02-07T09:23:07.167Z,6.50
2023-02-07T09:28:12.203Z,6.50
2023-02-07T09:33:17.174Z,6.60
2023-02-07T09:38:22.436Z,6.60
2023-02-07T09:43:39.239Z,6.60
2023-02-07T09:48:49.355Z,6.60
2023-02-07T09:53:56.335Z,6.60
2023-02-07T09:59:06.507Z,6.70
2023-02-07T10:04:30.739Z,6.70
2023-02-07T10:09:38.981Z,6.80
2023-02-07T10:15:10.787Z,6.80
2023-02-07T10:20:37.164Z,6.90
2023-02-07T10:25:49.983Z,7.00
2023-02-07T10:30:59.805Z,7.20
2023-02-07T10:36:04.863Z,7.30
2023-02-07T10:41:14.939Z,7.40
2023-02-07T10:46:21.713Z,7.50
2023-02-07T10:51:30.280Z,7.60
2023-02-07T10:56:37.480Z,7.70
2023-02-07T11:01:42.363Z,7.80
2023-02-07T11:06:45.815Z,7.90
2023-02-07T11:11:50.826Z,8.00
2023-02-07T11:16:56.600Z,8.20
2023-02-07T11:22:11.247Z,8.20
2023-02-07T11:27:17.596Z,8.30
2023-02-07T11:32:25.913Z,8.40
2023-02-07T11:37:32.552Z,8.40
2023-02-07T11:42:37.262Z,8.40
2023-02-07T11:47:44.637Z,8.40
2023-02-07T11:52:52.349Z,8.50
2023-02-07T11:57:58.520Z,8.50
2023-02-07T12:03:09.049Z,8.50
2023-02-07T12:08:18.096Z,8.60
2023-02-07T12:13:25.465Z,8.60
2023-02-07T12:18:34.787Z,8.60
2023-02-07T12:23:44.667Z,8.70
2023-02-07T12:29:11.103Z,8.70
2023-02-07T12:34:22.689Z,8.70
2023-02-07T12:39:34.204Z,8.80
2023-02-07T12:44:43.849Z,8.80
2023-02-07T12:50:04.017Z,8.80
2023-02-07T12:55:21.541Z,9.10
2023-02-07T13:00:30.019Z,9.40
2023-02-07T13:05:51.413Z,9.60
2023-02-07T13:11:03.530Z,9.70
2023-02-07T13:16:14.999Z,9.70
2023-02-07T13:21:27.038Z,9.80
2023-02-07T13:26:32.690Z,9.70
2023-02-07T13:31:41.718Z,9.70
2023-02-07T13:36:49.181Z,9.70
2023-02-07T13:42:12.916Z,9.60
2023-02-07T13:47:35.331Z,9.60
2023-02-07T13:52:47.969Z,9.60
2023-02-07T13:58:10.362Z,9.50
2023-02-07T14:03:23.217Z,9.50
2023-02-07T14:08:30.374Z,9.40
2023-02-07T14:13:35.783Z,9.40
2023-02-07T14:18:45.094Z,9.40
2023-02-07T14:24:03.984Z,9.40
2023-02-07T14:29:42.281Z,9.30
2023-02-07T14:35:01.624Z,9.30
2023-02-07T14:40:19.034Z,9.30
2023-02-07T14:45:24.145Z,9.40
2023-02-07T14:50:33.620Z,9.30
2023-02-07T14:55:49.074Z,9.30
2023-02-07T15:00:59.748Z,9.30
2023-02-07T15:06:04.564Z,9.30
2023-02-07T15:11:13.095Z,9.30
2023-02-07T15:16:20.171Z,9.20
2023-02-07T15:21:31.622Z,9.20
2023-02-07T15:26:37.703Z,9.20
2023-02-07T15:31:42.793Z,9.20
2023-02-07T15:36:47.412Z,9.20
2023-02-07T15:41:54.504Z,9.20
2023-02-07T15:46:59.905Z,9.10
2023-02-07T15:52:07.607Z,9.10
2023-02-07T15:57:20.960Z,9.10
2023-02-07T16:02:31.614Z,9.10
2023-02-07T16:07:35.120Z,9.00
2023-02-07T16:12:50.027Z,9.00
2023-02-07T16:17:54.151Z,8.90
2023-02-07T16:23:00.999Z,9.00
2023-02-07T16:28:12.260Z,9.00
2023-02-07T16:33:16.064Z,8.90
2023-02-07T16:38:19.679Z,8.90
2023-02-07T16:43:36.790Z,8.90
2023-02-07T16:48:40.614Z,8.90
2023-02-07T16:53:44.393Z,8.90
2023-02-07T16:58:49.435Z,8.90
2023-02-07T17:03:52.947Z,8.90
2023-02-07T17:08:56.595Z,8.90
2023-02-07T17:14:02.097Z,8.80
2023-02-07T17:19:12.377Z,8.80
2023-02-07T17:24:19.625Z,8.80
2023-02-07T17:29:28.165Z,8.70
2023-02-07T17:34:32.126Z,8.70
2023-02-07T17:39:38.702Z,8.70
2023-02-07T17:44:51.355Z,8.60
2023-02-07T17:49:56.235Z,8.60
2023-02-07T17:55:01.878Z,8.50
2023-02-07T18:00:19.908Z,8.50
2023-02-07T18:05:25.607Z,8.50
2023-02-07T18:10:33.781Z,8.50
2023-02-07T18:15:40.733Z,8.40
2023-02-07T18:20:48.203Z,8.40
2023-02-07T18:25:54.893Z,8.40
2023-02-07T18:31:00.671Z,8.40
2023-02-07T18:36:06.724Z,8.30
2023-02-07T18:41:14.031Z,8.30
2023-02-07T18:46:23.207Z,8.20
2023-02-07T18:51:28.259Z,8.20
2023-02-07T18:56:37.824Z,8.20
2023-02-07T19:01:48.830Z,8.10
2023-02-07T19:06:54.672Z,8.10
2023-02-07T19:11:59.970Z,8.10
2023-02-07T19:17:08.950Z,8.10
2023-02-07T19:22:17.900Z,8.10
2023-02-07T19:27:26.982Z,8.00
2023-02-07T19:32:33.344Z,7.90
2023-02-07T19:37:38.893Z,7.90
2023-02-07T19:42:45.992Z,7.90
2023-02-07T19:47:52.169Z,7.90
2023-02-07T19:52:59.931Z,7.80
2023-02-07T19:58:05.315Z,7.80
2023-02-07T20:03:13.450Z,7.70
2023-02-07T20:08:18.759Z,7.70
2023-02-07T20:13:27.337Z,7.70
2023-02-07T20:18:34.277Z,7.70
2023-02-07T20:23:40.642Z,7.70
2023-02-07T20:28:46.637Z,7.60
2023-02-07T20:33:59.658Z,7.60
2023-02-07T20:39:05.140Z,7.60
2023-02-07T20:44:13.342Z,7.60
2023-02-07T20:49:26.285Z,7.60
2023-02-07T20:54:32.718Z,7.50
2023-02-07T20:59:38.993Z,7.50
2023-02-07T21:04:49.655Z,7.50
2023-02-07T21:09:57.420Z,7.50
2023-02-07T21:15:01.864Z,7.50
2023-02-07T21:20:08.284Z,7.50
2023-02-07T21:25:15.227Z,7.50
2023-02-07T21:30:21.350Z,7.50
2023-02-07T21:35:28.586Z,7.40
2023-02-07T21:40:31.966Z,7.40
2023-02-07T21:45:38.846Z,7.40
2023-02-07T21:50:44.025Z,7.40
2023-02-07T21:55:47.519Z,7.40
2023-02-07T22:00:51.022Z,7.40
2023-02-07T22:05:55.967Z,7.30
2023-02-07T22:11:02.934Z,7.30
2023-02-07T22:16:07.158Z,7.30
2023-02-07T22:21:17.122Z,7.30
2023-02-07T22:26:21.249Z,7.20
2023-02-07T22:31:26.586Z,7.20
2023-02-07T22:36:34.615Z,7.20
2023-02-07T22:41:38.355Z,7.20
2023-02-07T22:46:41.877Z,7.20
2023-02-07T22:51:47.531Z,7.20
2023-02-07T22:56:51.003Z,7.20
2023-02-07T23:01:54.402Z,7.20
2023-02-07T23:06:59.464Z,7.10
2023-02-07T23:12:02.864Z,7.10
2023-02-07T23:17:06.470Z,7.10
2023-02-07T23:22:11.320Z,7.10
2023-02-07T23:27:15.439Z,7.10
2023-02-07T23:32:19.712Z,7.10
2023-02-07T23:37:24.507Z,7.00
2023-02-07T23:42:28.153Z,7.00
2023-02-07T23:47:31.668Z,7.00
2023-02-07T23:52:36.648Z,7.00
2023-02-07T23:57:40.131Z,7.00
